createdAt,value
2023-01-23T00:00:55.483Z,11.18
2023-01-23T00:13:15.211Z,11.55
2023-01-23T00:16:52.630Z,11.39
2023-01-23T00:20:23.880Z,11.45
2023-01-23T00:38:20.664Z,11.29
2023-01-23T00:46:20.126Z,11.34
2023-01-23T01:51:04.700Z,11.66
2023-01-23T01:54:19.237Z,11.42
2023-01-23T01:57:17.937Z,11.64
2023-01-23T02:00:15.060Z,11.55
2023-01-23T02:03:14.972Z,11.91
2023-01-23T02:05:57.339Z,11.92
2023-01-23T02:08:40.749Z,12.22
2023-01-23T02:11:16.963Z,11.65
2023-01-23T02:14:10.272Z,11.79
2023-01-23T02:17:22.410Z,11.75
2023-01-23T02:20:49.141Z,11.62
2023-01-23T02:24:18.960Z,11.38
2023-01-23T02:26:56.356Z,11.80
2023-01-23T02:30:08.713Z,11.69
2023-01-23T02:32:51.713Z,11.85
2023-01-23T02:35:41.768Z,11.98
2023-01-23T02:38:31.685Z,12.06
2023-01-23T02:45:39.174Z,11.70
2023-01-23T02:48:56.584Z,12.04
2023-01-23T02:52:19.460Z,11.62
2023-01-23T02:55:23.811Z,11.48
2023-01-23T02:58:37.223Z,11.89
2023-01-23T03:01:27.022Z,11.90
2023-01-23T03:04:32.255Z,12.00
2023-01-23T03:07:23.178Z,11.95
2023-01-23T03:10:23.949Z,12.19
2023-01-23T03:13:23.931Z,11.41
2023-01-23T03:22:52.637Z,11.18
2023-01-23T03:41:27.187Z,11.70
2023-01-23T03:49:44.856Z,11.54
2023-01-23T04:02:32.416Z,11.66
2023-01-23T04:05:48.735Z,11.66
2023-01-23T04:13:36.592Z,11.06
2023-01-23T04:20:09.067Z,11.38
2023-01-23T04:23:19.649Z,11.94
2023-01-23T04:26:35.444Z,11.38
2023-01-23T04:30:11.692Z,11.62
2023-01-23T04:33:33.261Z,12.05
2023-01-23T04:37:03.990Z,11.74
2023-01-23T04:48:35.755Z,11.37
2023-01-23T04:52:16.187Z,11.89
2023-01-23T04:58:52.576Z,12.03
2023-01-23T05:12:33.421Z,11.06
2023-01-23T05:17:04.257Z,11.42
2023-01-23T05:22:00.611Z,11.69
2023-01-23T05:25:24.238Z,11.45
2023-01-23T05:39:43.920Z,11.69
2023-01-23T05:43:06.048Z,11.49
2023-01-23T05:51:01.869Z,11.69
2023-01-23T05:54:23.018Z,11.73
2023-01-23T06:08:56.593Z,11.80
2023-01-23T06:12:22.896Z,11.88
2023-01-23T06:15:46.332Z,11.91
2023-01-23T06:19:25.334Z,11.43
2023-01-23T06:23:21.009Z,12.01
2023-01-23T06:26:56.070Z,11.29
2023-01-23T06:33:38.708Z,11.85
2023-01-23T06:38:24.683Z,11.66
2023-01-23T06:41:55.142Z,11.77
2023-01-23T06:45:25.875Z,11.80
2023-01-23T06:53:12.977Z,12.05
2023-01-23T07:00:33.840Z,11.90
2023-01-23T07:05:20.738Z,11.97
2023-01-23T07:11:55.159Z,12.03
2023-01-23T07:31:22.954Z,11.82
2023-01-23T07:38:14.868Z,11.60
2023-01-23T07:41:24.334Z,12.09
2023-01-23T07:49:35.358Z,12.05
2023-01-23T07:53:03.067Z,11.86
2023-01-23T07:56:37.203Z,12.15
2023-01-23T08:00:48.613Z,11.97
2023-01-23T08:03:52.895Z,11.92
2023-01-23T08:07:20.359Z,12.08
2023-01-23T08:10:15.279Z,12.12
2023-01-23T08:16:55.083Z,12.46
2023-01-23T08:19:49.255Z,11.88
2023-01-23T08:22:55.264Z,12.47
2023-01-23T08:26:24.859Z,11.83
2023-01-23T08:29:32.070Z,12.31
2023-01-23T08:32:56.063Z,12.14
2023-01-23T08:42:34.960Z,12.07
2023-01-23T08:49:59.086Z,11.86
2023-01-23T08:56:37.151Z,12.25
2023-01-23T09:00:20.401Z,12.08
2023-01-23T09:07:11.756Z,12.44
2023-01-23T09:10:15.170Z,12.04
2023-01-23T09:13:24.714Z,12.29
2023-01-23T09:16:36.564Z,11.81
2023-01-23T09:19:40.184Z,12.01
2023-01-23T09:22:25.130Z,11.98
2023-01-23T09:25:11.467Z,12.26
2023-01-23T09:28:02.369Z,11.79
2023-01-23T09:30:53.487Z,12.09
2023-01-23T09:34:24.097Z,12.10
2023-01-23T09:36:54.451Z,11.89
2023-01-23T09:39:24.778Z,12.07
2023-01-23T09:41:58.399Z,11.91
2023-01-23T09:45:36.427Z,11.88
2023-01-23T09:52:48.309Z,12.12
2023-01-23T09:55:41.248Z,12.00
2023-01-23T09:58:31.737Z,11.81
2023-01-23T10:01:05.217Z,11.94
2023-01-23T10:04:09.278Z,12.12
2023-01-23T10:07:09.248Z,12.28
2023-01-23T10:09:48.931Z,12.13
2023-01-23T10:12:56.203Z,11.87
2023-01-23T10:15:47.291Z,12.14
2023-01-23T10:18:23.059Z,12.31
2023-01-23T10:21:03.105Z,11.91
2023-01-23T10:24:11.712Z,12.39
2023-01-23T10:26:44.940Z,12.21
2023-01-23T10:29:54.948Z,11.91
2023-01-23T10:33:04.473Z,12.25
2023-01-23T10:35:42.865Z,12.02
2023-01-23T10:38:28.211Z,12.21
2023-01-23T10:41:54.306Z,12.16
2023-01-23T10:44:34.462Z,12.22
2023-01-23T10:47:42.558Z,12.21
2023-01-23T10:50:17.262Z,12.08
2023-01-23T10:52:51.046Z,12.49
2023-01-23T10:55:20.975Z,11.99
2023-01-23T10:58:08.587Z,12.19
2023-01-23T11:01:36.487Z,12.00
2023-01-23T11:04:24.886Z,12.45
2023-01-23T11:07:11.761Z,11.95
2023-01-23T11:10:21.277Z,12.33
2023-01-23T11:13:01.300Z,12.15
2023-01-23T11:15:39.392Z,12.38
2023-01-23T11:18:39.003Z,12.08
2023-01-23T11:21:39.638Z,12.11
2023-01-23T11:24:38.088Z,11.94
2023-01-23T11:27:19.228Z,11.77
2023-01-23T11:29:51.446Z,12.18
2023-01-23T11:32:43.340Z,12.64
2023-01-23T11:35:23.995Z,12.24
2023-01-23T11:38:05.257Z,12.59
2023-01-23T11:41:14.393Z,12.06
2023-01-23T11:43:45.228Z,12.26
2023-01-23T11:46:46.674Z,12.71
2023-01-23T11:49:51.427Z,12.49
2023-01-23T11:52:38.718Z,12.75
2023-01-23T11:55:34.678Z,12.74
2023-01-23T11:58:49.952Z,12.58
2023-01-23T12:02:11.971Z,12.14
2023-01-23T12:05:01.728Z,12.46
2023-01-23T12:08:03.808Z,12.30
2023-01-23T12:11:18.149Z,12.71
2023-01-23T12:14:30.925Z,12.38
2023-01-23T12:17:16.845Z,12.06
2023-01-23T12:20:24.522Z,12.46
2023-01-23T12:23:04.407Z,11.87
2023-01-23T12:25:49.961Z,12.14
2023-01-23T12:29:04.820Z,12.53
2023-01-23T12:32:37.125Z,12.39
2023-01-23T12:35:47.517Z,11.92
2023-01-23T12:38:47.084Z,11.83
2023-01-23T12:41:23.227Z,12.06
2023-01-23T12:44:33.977Z,12.19
2023-01-23T12:47:19.740Z,12.55
2023-01-23T12:50:02.498Z,12.17
2023-01-23T12:52:35.739Z,12.02
2023-01-23T12:55:27.531Z,12.13
2023-01-23T12:58:10.823Z,11.57
2023-01-23T13:00:47.338Z,12.73
2023-01-23T13:03:46.233Z,12.46
2023-01-23T13:06:42.366Z,12.30
2023-01-23T13:09:22.848Z,12.58
2023-01-23T13:12:03.920Z,12.76
2023-01-23T13:14:43.488Z,12.30
2023-01-23T13:17:40.880Z,12.15
2023-01-23T13:20:44.937Z,12.40
2023-01-23T13:23:38.254Z,12.14
2023-01-23T13:26:43.246Z,12.53
2023-01-23T13:29:51.459Z,12.23
2023-01-23T13:32:32.938Z,12.24
2023-01-23T13:35:53.511Z,12.58
2023-01-23T13:38:32.732Z,11.84
2023-01-23T13:41:07.935Z,12.27
2023-01-23T13:44:27.156Z,12.22
2023-01-23T14:22:48.393Z,12.28
2023-01-23T14:29:55.926Z,12.16
2023-01-23T14:32:50.374Z,12.49
2023-01-23T14:35:45.009Z,12.56
2023-01-23T14:39:04.400Z,11.96
2023-01-23T14:41:46.320Z,12.21
2023-01-23T14:44:36.359Z,12.52
2023-01-23T14:47:59.722Z,12.47
2023-01-23T14:54:23.748Z,11.84
2023-01-23T14:57:47.781Z,12.08
2023-01-23T15:00:24.060Z,11.87
2023-01-23T15:07:20.663Z,11.66
2023-01-23T15:09:55.264Z,11.91
2023-01-23T15:13:47.684Z,11.96
2023-01-23T15:16:46.590Z,12.33
2023-01-23T15:19:34.398Z,12.03
2023-01-23T15:22:59.314Z,11.84
2023-01-23T15:26:56.427Z,11.82
2023-01-23T15:30:05.943Z,12.14
2023-01-23T15:32:57.426Z,12.11
2023-01-23T15:41:59.248Z,11.82
2023-01-23T15:45:17.306Z,11.70
2023-01-23T15:49:27.351Z,11.89
2023-01-23T16:05:22.469Z,11.56
2023-01-23T16:08:30.291Z,11.99
2023-01-23T16:12:48.795Z,11.63
2023-01-23T16:16:08.781Z,11.60
2023-01-23T16:19:19.009Z,11.67
2023-01-23T16:28:19.631Z,11.55
2023-01-23T16:35:19.440Z,11.67
2023-01-23T16:47:07.772Z,11.60
2023-01-23T16:50:02.972Z,11.24
2023-01-23T16:54:17.600Z,11.47
2023-01-23T17:06:51.684Z,11.14
2023-01-23T17:10:55.252Z,11.21
2023-01-23T17:13:51.919Z,11.55
2023-01-23T17:18:13.158Z,11.08
2023-01-23T17:21:23.801Z,10.81
2023-01-23T17:25:17.991Z,10.80
2023-01-23T17:42:29.608Z,10.96
2023-01-23T17:50:21.642Z,11.14
2023-01-23T17:53:07.879Z,11.08
2023-01-23T17:56:20.625Z,11.06
2023-01-23T18:14:26.970Z,9.84
2023-01-23T18:23:37.043Z,10.33
2023-01-23T18:40:40.733Z,10.23
2023-01-23T18:43:50.306Z,10.13
2023-01-23T18:47:36.271Z,10.18
2023-01-23T19:00:18.257Z,10.14
2023-01-23T19:05:21.891Z,10.10
2023-01-23T19:09:09.035Z,10.18
2023-01-23T19:23:24.191Z,10.07
2023-01-23T19:28:02.947Z,10.15
2023-01-23T19:31:40.863Z,10.23
2023-01-23T19:34:23.075Z,10.11
2023-01-23T19:38:07.892Z,10.54
2023-01-23T19:52:21.045Z,9.98
2023-01-23T20:03:12.677Z,9.93
2023-01-23T20:06:48.643Z,10.11
2023-01-23T20:17:59.623Z,9.83
2023-01-23T20:30:16.272Z,10.04
2023-01-23T20:33:12.775Z,10.35
2023-01-23T20:41:17.444Z,9.93
2023-01-23T20:45:25.481Z,9.88
2023-01-23T21:37:48.242Z,9.55
2023-01-23T22:01:52.166Z,9.91
2023-01-23T22:14:55.349Z,9.60
2023-01-23T22:22:36.310Z,9.56
2023-01-23T22:29:55.860Z,9.78
2023-01-23T22:35:55.674Z,10.20
2023-01-23T22:39:15.278Z,10.21
2023-01-23T22:42:06.583Z,9.84
2023-01-23T22:45:43.316Z,10.18
2023-01-23T22:56:16.498Z,9.94
2023-01-23T22:59:05.998Z,10.25
2023-01-23T23:04:54.853Z,9.51
2023-01-23T23:31:35.994Z,9.62
2023-01-23T23:34:23.634Z,9.73
2023-01-23T23:37:00.546Z,10.29
